createdAt,value
2023-03-21T00:04:40.921Z,96651.47
2023-03-21T00:09:48.942Z,96654.44
2023-03-21T00:14:54.014Z,96647.16
2023-03-21T00:19:56.994Z,96639.31
2023-03-21T00:25:02.588Z,96636.34
2023-03-21T00:30:06.912Z,96634.72
2023-03-21T00:35:43.934Z,96626.59
2023-03-21T00:40:43.781Z,96631.41
2023-03-21T00:45:52.423Z,96626.00
2023-03-21T00:50:57.139Z,96616.28
2023-03-21T00:56:01.913Z,96621.69
2023-03-21T01:01:06.651Z,96621.94
2023-03-21T01:06:13.377Z,96618.47
2023-03-21T01:11:19.740Z,96621.94
2023-03-21T01:16:22.867Z,96623.31
2023-03-21T01:21:25.760Z,96612.19
2023-03-21T01:26:30.459Z,96609.78
2023-03-21T01:31:33.658Z,96611.13
2023-03-21T01:36:36.851Z,96610.28
2023-03-21T01:41:44.387Z,96604.34
2023-03-21T01:47:03.589Z,96607.06
2023-03-21T01:52:18.984Z,96594.59
2023-03-21T01:57:40.393Z,96595.41
2023-03-21T02:02:52.670Z,96600.28
2023-03-21T02:07:55.706Z,96592.44
2023-03-21T02:13:09.704Z,96589.19
2023-03-21T02:18:18.308Z,96589.72
2023-03-21T02:24:03.577Z,96579.16
2023-03-21T02:29:17.868Z,96575.91
2023-03-21T02:34:40.449Z,96578.38
2023-03-21T02:39:52.046Z,96574.56
2023-03-21T02:44:59.266Z,96576.19
2023-03-21T02:50:09.268Z,96573.47
2023-03-21T02:55:16.090Z,96566.69
2023-03-21T03:00:21.621Z,96573.72
2023-03-21T03:05:26.064Z,96572.34
2023-03-21T03:10:40.831Z,96574.25
2023-03-21T03:15:50.674Z,96568.88
2023-03-21T03:20:59.002Z,96563.47
2023-03-21T03:26:05.521Z,96570.75
2023-03-21T03:31:11.996Z,96569.38
2023-03-21T03:36:33.590Z,96578.31
2023-03-21T03:42:07.933Z,96582.09
2023-03-21T03:47:08.613Z,96583.13
2023-03-21T03:52:14.764Z,96582.03
2023-03-21T03:57:19.297Z,96588.81
2023-03-21T04:02:22.187Z,96582.03
2023-03-21T04:07:25.144Z,96584.75
2023-03-21T04:12:29.326Z,96582.03
2023-03-21T04:17:33.122Z,96583.13
2023-03-21T04:22:36.027Z,96587.69
2023-03-21T04:27:40.281Z,96592.56
2023-03-21T04:32:43.142Z,96584.72
2023-03-21T04:37:46.001Z,96590.34
2023-03-21T04:42:50.380Z,96587.63
2023-03-21T04:47:53.288Z,96591.41
2023-03-21T04:52:56.175Z,96586.00
2023-03-21T04:58:01.293Z,96584.13
2023-03-21T05:03:05.038Z,96582.47
2023-03-21T05:08:07.890Z,96587.34
2023-03-21T05:13:12.113Z,96583.03
2023-03-21T05:18:15.307Z,96587.59
2023-03-21T05:23:18.550Z,96586.22
2023-03-21T05:28:22.773Z,96587.06
2023-03-21T05:33:25.593Z,96584.59
2023-03-21T05:38:28.417Z,96581.91
2023-03-21T05:43:32.537Z,96587.06
2023-03-21T05:48:35.850Z,96587.34
2023-03-21T05:53:38.727Z,96594.38
2023-03-21T05:58:43.032Z,96594.97
2023-03-21T06:03:46.042Z,96604.44
2023-03-21T06:08:49.153Z,96612.28
2023-03-21T06:13:53.297Z,96619.28
2023-03-21T06:18:56.268Z,96614.72
2023-03-21T06:23:59.058Z,96618.25
2023-03-21T06:29:03.226Z,96614.47
2023-03-21T06:34:06.104Z,96618.78
2023-03-21T06:39:10.572Z,96610.44
2023-03-21T06:44:14.738Z,96610.16
2023-03-21T06:49:17.894Z,96618.25
2023-03-21T06:54:21.170Z,96613.97
2023-03-21T06:59:25.362Z,96616.66
2023-03-21T07:04:28.311Z,96627.22
2023-03-21T07:09:31.534Z,96626.97
2023-03-21T07:14:35.722Z,96615.09
2023-03-21T07:19:38.726Z,96630.75
2023-03-21T07:24:41.602Z,96627.00
2023-03-21T07:29:47.319Z,96624.84
2023-03-21T07:34:50.112Z,96629.72
2023-03-21T07:39:53.224Z,96625.44
2023-03-21T07:44:57.603Z,96620.28
2023-03-21T07:50:00.805Z,96629.75
2023-03-21T07:55:03.765Z,96623.31
2023-03-21T08:00:10.928Z,96623.00
2023-03-21T08:05:13.794Z,96623.00
2023-03-21T08:10:17.009Z,96620.31
2023-03-21T08:15:21.627Z,96639.53
2023-03-21T08:20:24.596Z,96635.19
2023-03-21T08:25:27.422Z,96625.50
2023-03-21T08:30:31.771Z,96612.53
2023-03-21T08:35:34.931Z,96609.41
2023-03-21T08:40:38.172Z,96611.03
2023-03-21T08:45:42.595Z,96612.69
2023-03-21T08:50:45.607Z,96609.19
2023-03-21T08:55:50.279Z,96607.56
2023-03-21T09:00:54.466Z,96604.72
2023-03-21T09:05:59.045Z,96616.94
2023-03-21T09:11:01.961Z,96600.97
2023-03-21T09:16:06.936Z,96610.97
2023-03-21T09:21:12.759Z,96605.53
2023-03-21T09:26:16.269Z,96600.16
2023-03-21T09:31:22.854Z,96599.59
2023-03-21T09:36:27.273Z,96601.47
2023-03-21T09:41:40.442Z,96592.28
2023-03-21T09:46:48.465Z,96591.19
2023-03-21T09:51:52.833Z,96592.28
2023-03-21T09:56:58.154Z,96583.31
2023-03-21T10:02:03.295Z,96581.16
2023-03-21T10:07:07.909Z,96585.78
2023-03-21T10:12:15.467Z,96575.75
2023-03-21T10:17:27.301Z,96564.66
2023-03-21T10:22:30.545Z,96559.50
2023-03-21T10:27:34.245Z,96554.94
2023-03-21T10:32:38.458Z,96551.69
2023-03-21T10:37:41.393Z,96549.78
2023-03-21T10:42:44.776Z,96551.16
2023-03-21T10:47:50.590Z,96543.03
2023-03-21T10:53:00.407Z,96544.91
2023-03-21T10:58:08.374Z,96538.72
2023-03-21T11:03:22.774Z,96534.66
2023-03-21T11:08:27.301Z,96531.66
2023-03-21T11:13:35.480Z,96525.47
2023-03-21T11:18:43.382Z,96527.63
2023-03-21T11:23:48.132Z,96508.69
2023-03-21T11:28:51.370Z,96507.59
2023-03-21T11:33:59.938Z,96497.84
2023-03-21T11:39:14.373Z,96493.25
2023-03-21T11:44:29.168Z,96485.13
2023-03-21T11:49:33.442Z,96487.03
2023-03-21T11:54:44.247Z,96476.72
2023-03-21T11:59:53.198Z,96468.03
2023-03-21T12:05:01.426Z,96455.34
2023-03-21T12:10:22.126Z,96443.41
2023-03-21T12:15:29.417Z,96436.63
2023-03-21T12:20:41.010Z,96425.81
2023-03-21T12:25:48.772Z,96417.16
2023-03-21T12:30:59.961Z,96411.47
2023-03-21T12:36:18.395Z,96402.00
2023-03-21T12:41:25.582Z,96402.81
2023-03-21T12:46:31.697Z,96399.22
2023-03-21T12:51:38.356Z,96390.84
2023-03-21T12:56:48.266Z,96398.69
2023-03-21T13:01:54.639Z,96382.66
2023-03-21T13:07:01.868Z,96376.63
2023-03-21T13:12:09.914Z,96371.19
2023-03-21T13:17:16.363Z,96365.13
2023-03-21T13:22:24.573Z,96357.78
2023-03-21T13:27:30.274Z,96355.63
2023-03-21T13:32:35.243Z,96345.00
2023-03-21T13:37:41.001Z,96341.19
2023-03-21T13:42:45.969Z,96343.00
2023-03-21T13:47:54.892Z,96330.44
2023-03-21T13:53:35.476Z,96329.97
2023-03-21T13:58:40.692Z,96329.94
2023-03-21T14:03:46.014Z,96316.66
2023-03-21T14:08:50.675Z,96325.88
2023-03-21T14:13:54.954Z,96325.59
2023-03-21T14:19:00.835Z,96316.97
2023-03-21T14:24:07.133Z,96327.22
2023-03-21T14:29:26.072Z,96322.03
2023-03-21T14:34:31.752Z,96318.31
2023-03-21T14:39:38.011Z,96313.94
2023-03-21T14:44:58.674Z,96315.38
2023-03-21T14:55:16.862Z,96302.53
2023-03-21T15:00:24.745Z,96303.91
2023-03-21T15:05:30.980Z,96305.56
2023-03-21T15:10:37.940Z,96298.47
2023-03-21T15:15:42.078Z,96303.56
2023-03-21T15:20:47.940Z,96293.56
2023-03-21T15:25:52.194Z,96300.72
2023-03-21T15:30:56.399Z,96289.50
2023-03-21T15:36:00.686Z,96286.16
2023-03-21T15:41:28.772Z,96284.13
2023-03-21T15:46:41.442Z,96291.72
2023-03-21T15:51:46.574Z,96297.13
2023-03-21T15:56:54.685Z,96293.84
2023-03-21T16:01:57.704Z,96290.34
2023-03-21T16:07:03.045Z,96289.34
2023-03-21T16:12:12.036Z,96294.16
2023-03-21T16:17:33.148Z,96299.50
2023-03-21T16:22:36.106Z,96305.00
2023-03-21T16:27:40.629Z,96310.00
2023-03-21T16:32:43.467Z,96308.94
2023-03-21T16:37:48.022Z,96311.28
2023-03-21T16:42:52.171Z,96302.28
2023-03-21T16:47:55.086Z,96295.06
2023-03-21T16:52:58.769Z,96311.03
2023-03-21T16:58:04.544Z,96311.41
2023-03-21T17:03:15.311Z,96307.50
2023-03-21T17:08:19.874Z,96316.50
2023-03-21T17:13:24.090Z,96329.22
2023-03-21T17:18:26.930Z,96334.19
2023-03-21T17:23:29.827Z,96339.31
2023-03-21T17:28:33.998Z,96336.97
2023-03-21T17:33:36.818Z,96343.28
2023-03-21T17:38:39.622Z,96341.44
2023-03-21T17:43:43.992Z,96346.13
2023-03-21T17:48:47.095Z,96342.34
2023-03-21T17:53:51.154Z,96350.22
2023-03-21T17:58:56.830Z,96353.22
2023-03-21T18:04:02.439Z,96356.22
2023-03-21T18:09:11.077Z,96350.56
2023-03-21T18:14:19.194Z,96344.81
2023-03-21T18:19:23.114Z,96356.47
2023-03-21T18:24:26.047Z,96361.38
2023-03-21T18:30:22.885Z,96354.06
2023-03-21T18:34:54.120Z,96357.84
2023-03-21T18:39:56.978Z,96354.63
2023-03-21T18:45:01.174Z,96352.19
2023-03-21T18:50:14.421Z,96355.72
2023-03-21T18:55:18.700Z,96367.91
2023-03-21T19:00:23.675Z,96368.75
2023-03-21T19:05:27.350Z,96374.41
2023-03-21T19:10:31.272Z,96370.88
2023-03-21T19:15:35.810Z,96386.59
2023-03-21T19:20:40.065Z,96388.78
2023-03-21T19:25:43.881Z,96385.78
2023-03-21T19:30:50.574Z,96386.88
2023-03-21T19:36:10.829Z,96396.34
2023-03-21T19:41:16.536Z,96385.00
2023-03-21T19:46:23.106Z,96387.69
2023-03-21T19:51:30.118Z,96387.16
2023-03-21T19:56:34.802Z,96386.34
2023-03-21T20:01:39.192Z,96389.31
2023-03-21T20:06:42.041Z,96382.56
2023-03-21T20:11:44.918Z,96386.34
2023-03-21T20:16:49.179Z,96382.28
2023-03-21T20:21:58.818Z,96377.97
2023-03-21T20:27:02.867Z,96376.09
2023-03-21T20:32:07.740Z,96387.97
2023-03-21T20:37:11.402Z,96380.13
2023-03-21T20:42:14.332Z,96380.13
2023-03-21T20:47:18.607Z,96373.09
2023-03-21T20:57:45.001Z,96375.00
2023-03-21T21:02:50.814Z,96383.38
2023-03-21T21:07:54.033Z,96393.41
2023-03-21T21:12:57.224Z,96399.06
2023-03-21T21:18:06.027Z,96387.44
2023-03-21T21:23:10.487Z,96388.53
2023-03-21T21:28:14.464Z,96386.06
2023-03-21T21:33:21.031Z,96376.88
2023-03-21T21:38:25.041Z,96376.88
2023-03-21T21:43:28.784Z,96376.88
2023-03-21T21:48:34.202Z,96384.19
2023-03-21T21:53:38.945Z,96380.66
2023-03-21T21:58:48.296Z,96388.25
2023-03-21T22:03:53.032Z,96390.13
2023-03-21T22:08:56.962Z,96383.94
2023-03-21T22:14:00.226Z,96371.19
2023-03-21T22:19:04.919Z,96382.31
2023-03-21T22:24:08.582Z,96376.06
2023-03-21T22:29:11.850Z,96379.03
2023-03-21T22:34:16.499Z,96369.84
2023-03-21T22:39:20.110Z,96360.09
2023-03-21T22:44:23.352Z,96368.50
2023-03-21T22:49:27.937Z,96363.91
2023-03-21T22:54:31.460Z,96365.25
2023-03-21T22:59:34.649Z,96371.19
2023-03-21T23:04:39.499Z,96370.94
2023-03-21T23:09:42.712Z,96379.88
2023-03-21T23:14:45.872Z,96387.16
2023-03-21T23:19:50.454Z,96373.09
2023-03-21T23:24:53.656Z,96367.69
2023-03-21T23:29:57.771Z,96364.47
2023-03-21T23:35:02.361Z,96374.44
2023-03-21T23:40:07.124Z,96367.16
2023-03-21T23:45:10.756Z,96361.19
2023-03-21T23:50:14.942Z,96355.78
2023-03-21T23:55:17.930Z,96361.44
